Time;durP1;ratioP1;P1;durP2;ratioP2;P2;SDS_P1;SDS_P2;PMS_P1;PMS_P2;Temp;Humidity;BMP_temperature;BMP_pressure;BME280_temperature;BME280_humidity;BME280_pressure;Samples;Min_cycle;Max_cycle;Signal;HPM_P1;HPM_P2
2023/01/05 00:01:42;;;;;;;25.47;3.67;;;;;;;16.74;53.60;101681.84;5098787;28;20047;-68
2023/01/05 00:04:08;;;;;;;27.50;3.87;;;;;;;17.67;52.52;101689.34;5113940;27;20023;-68
2023/01/05 00:06:34;;;;;;;24.37;3.77;;;;;;;17.01;51.98;101692.72;5131882;27;20026;-68
2023/01/05 00:08:59;;;;;;;30.10;4.10;;;;;;;16.86;53.35;101693.06;5102533;28;20019;-68
2023/01/05 00:22:35;;;;;;;35.93;4.10;;;;;;;16.91;53.11;101694.72;5112541;28;20097;-68
2023/01/05 00:25:03;;;;;;;29.53;4.00;;;;;;;17.59;51.35;101692.19;5098419;27;20438;-68
2023/01/05 00:27:29;;;;;;;22.53;3.57;;;;;;;15.67;55.86;101690.97;5096999;28;20036;-67
2023/01/05 00:29:54;;;;;;;37.80;4.67;;;;;;;16.64;53.71;101680.31;5114543;27;20066;-67
2023/01/05 00:32:20;;;;;;;27.40;4.87;;;;;;;18.22;49.25;101681.75;5093893;28;20484;-67
2023/01/05 00:34:46;;;;;;;33.60;4.37;;;;;;;16.72;53.83;101694.22;5117022;27;20055;-67
2023/01/05 00:37:11;;;;;;;31.30;5.27;;;;;;;17.15;52.38;101683.63;5088569;27;20039;-67
2023/01/05 00:39:37;;;;;;;34.07;5.80;;;;;;;16.71;53.60;101686.34;5114527;27;20491;-67
2023/01/05 00:42:02;;;;;;;33.33;5.10;;;;;;;16.73;53.67;101695.97;5111301;28;20130;-67
2023/01/05 00:44:28;;;;;;;37.70;4.77;;;;;;;17.20;52.26;101709.00;5088225;27;20522;-67
2023/01/05 00:46:53;;;;;;;26.40;4.63;;;;;;;17.21;53.36;101709.88;5091531;28;20028;-67
2023/01/05 00:49:19;;;;;;;27.03;4.20;;;;;;;15.89;57.38;101707.28;5098390;27;20030;-67
2023/01/05 00:51:44;;;;;;;36.40;5.23;;;;;;;16.99;54.91;101702.44;5110601;28;20021;-67
2023/01/05 00:54:10;;;;;;;38.50;5.07;;;;;;;17.07;52.71;101695.22;5100915;28;20047;-67
2023/01/05 00:56:36;;;;;;;38.63;4.77;;;;;;;16.70;53.86;101680.19;5115880;27;20081;-67
2023/01/05 00:59:01;;;;;;;36.93;5.03;;;;;;;16.77;54.18;101695.00;5096814;28;20042;-67
2023/01/05 01:01:27;;;;;;;25.43;3.67;;;;;;;15.87;58.11;101708.25;5111050;27;20047;-67
2023/01/05 01:03:52;;;;;;;35.37;4.47;;;;;;;16.96;54.18;101699.88;5125037;27;20030;-67
2023/01/05 01:06:23;;;;;;;28.33;4.93;;;;;;;16.20;56.73;101712.00;5092563;28;20034;-67
2023/01/05 01:08:49;;;;;;;31.27;4.83;;;;;;;17.46;53.40;101708.38;5109904;28;20499;-67
2023/01/05 01:11:18;;;;;;;35.27;5.03;;;;;;;17.71;52.53;101710.41;5110936;27;20058;-67
2023/01/05 01:13:44;;;;;;;28.10;5.33;;;;;;;16.50;56.29;101714.03;5127511;27;20033;-67
2023/01/05 01:16:12;;;;;;;37.93;4.90;;;;;;;17.22;54.30;101720.41;5112223;27;20106;-67
2023/01/05 01:18:38;;;;;;;33.67;4.23;;;;;;;17.50;52.86;101729.44;5125228;27;20027;-67
2023/01/05 01:21:04;;;;;;;38.33;4.53;;;;;;;17.23;54.01;101721.28;5078494;28;20027;-67
2023/01/05 01:23:30;;;;;;;38.80;4.50;;;;;;;16.59;56.63;101727.91;5124910;27;20054;-67
2023/01/05 01:25:55;;;;;;;37.20;5.27;;;;;;;16.69;56.84;101725.09;5091913;28;20032;-67
2023/01/05 01:28:22;;;;;;;43.47;5.80;;;;;;;17.75;53.15;101724.38;5110158;28;20184;-67
2023/01/05 01:30:48;;;;;;;29.43;4.57;;;;;;;16.76;54.50;101727.56;5092498;28;20016;-67
2023/01/05 01:33:13;;;;;;;40.43;4.50;;;;;;;15.68;59.25;101734.03;5115097;27;20057;-67
2023/01/05 01:35:39;;;;;;;37.67;6.27;;;;;;;16.80;55.17;101728.34;5088360;28;20015;-67
2023/01/05 01:38:04;;;;;;;38.30;5.27;;;;;;;16.31;58.77;101748.72;5106694;28;20080;-67
2023/01/05 01:40:32;;;;;;;37.67;5.80;;;;;;;16.23;58.78;101748.00;5092769;27;20080;-67
2023/01/05 01:42:57;;;;;;;24.30;3.87;;;;;;;16.67;57.23;101756.78;5129364;27;20411;-67
2023/01/05 01:45:24;;;;;;;25.50;4.13;;;;;;;16.66;55.86;101754.19;5073005;28;20074;-67
2023/01/05 01:47:57;;;;;;;29.87;4.87;;;;;;;16.68;55.33;101761.19;5095869;27;20367;-67
2023/01/05 01:50:53;;;;;;;31.60;4.90;;;;;;;16.59;56.70;101756.09;5096888;28;20032;-69
2023/01/05 01:53:50;;;;;;;27.17;4.03;;;;;;;16.76;56.54;101753.97;5066586;28;20035;-69
2023/01/05 01:56:19;;;;;;;27.53;5.67;;;;;;;16.84;54.71;101750.28;5088742;27;20498;-69
2023/01/05 01:58:45;;;;;;;45.53;5.13;;;;;;;17.30;54.97;101755.44;5131521;27;20031;-68
2023/01/05 02:01:10;;;;;;;31.03;5.47;;;;;;;16.96;54.87;101777.31;5125333;27;20058;-69
2023/01/05 02:03:37;;;;;;;33.13;4.27;;;;;;;16.51;56.01;101748.31;5089859;28;20020;-69
2023/01/05 02:06:02;;;;;;;33.93;4.30;;;;;;;16.44;56.51;101768.72;5099009;28;20036;-69
2023/01/05 02:08:31;;;;;;;31.07;4.00;;;;;;;16.20;57.64;101761.25;5106816;28;20437;-69
2023/01/05 02:11:30;;;;;;;35.00;6.07;;;;;;;17.10;54.06;101765.59;5129335;28;20031;-69
2023/01/05 02:14:04;;;;;;;26.27;5.13;;;;;;;16.61;55.62;101770.13;5104331;28;20031;-69
2023/01/05 02:16:42;;;;;;;38.03;4.30;;;;;;;15.81;59.82;101771.59;5095194;28;20030;-69
2023/01/05 02:19:42;;;;;;;39.37;4.73;;;;;;;16.02;59.34;101770.34;5109072;28;20026;-69
2023/01/05 02:22:20;;;;;;;34.30;4.60;;;;;;;17.01;54.07;101761.41;5112063;28;20456;-69
2023/01/05 02:25:24;;;;;;;24.37;3.77;;;;;;;16.25;55.93;101760.28;5121665;28;20539;-69
2023/01/05 02:28:11;;;;;;;34.87;5.30;;;;;;;16.91;55.03;101757.19;5056386;28;20047;-69
2023/01/05 02:30:42;;;;;;;20.53;3.53;;;;;;;17.40;52.83;101761.34;5095610;28;20020;-66
2023/01/05 02:33:18;;;;;;;30.50;4.63;;;;;;;17.00;53.79;101762.28;5098714;28;20431;-69
2023/01/05 02:35:53;;;;;;;29.53;4.70;;;;;;;16.39;57.05;101753.84;5121381;28;20020;-69
2023/01/05 02:38:31;;;;;;;27.20;3.93;;;;;;;17.09;53.84;101745.34;5103881;28;20475;-69
2023/01/05 02:41:06;;;;;;;28.43;3.97;;;;;;;16.38;55.15;101768.81;5089582;28;20440;-67
2023/01/05 02:43:33;;;;;;;36.23;5.90;;;;;;;16.62;55.39;101777.13;5090461;28;20039;-68
2023/01/05 02:45:58;;;;;;;19.27;4.03;;;;;;;16.66;54.61;101775.31;5112102;28;20060;-69
2023/01/05 02:48:24;;;;;;;29.50;4.63;;;;;;;17.37;54.22;101779.94;5110235;28;20023;-68
2023/01/05 02:51:00;;;;;;;20.67;4.03;;;;;;;16.20;57.19;101779.72;5116649;28;20463;-68
2023/01/05 02:53:50;;;;;;;33.50;4.57;;;;;;;16.61;54.84;101786.84;5092171;28;20031;-68
2023/01/05 02:56:24;;;;;;;26.67;4.07;;;;;;;17.06;54.83;101778.00;5094682;28;20024;-68
2023/01/05 02:59:05;;;;;;;33.80;3.80;;;;;;;16.24;56.46;101782.28;5104485;28;20431;-68
2023/01/05 03:01:35;;;;;;;31.73;3.97;;;;;;;16.89;53.70;101780.16;5075346;28;20459;-68
2023/01/05 03:04:12;;;;;;;39.37;5.00;;;;;;;17.29;53.84;101773.97;5109412;28;20034;-69
2023/01/05 03:06:46;;;;;;;35.77;4.40;;;;;;;17.58;51.79;101781.19;5109236;28;20016;-68
2023/01/05 03:09:18;;;;;;;40.77;5.37;;;;;;;17.09;54.02;101777.03;5122558;28;20031;-68
2023/01/05 03:14:41;;;;;;;32.60;5.30;;;;;;;17.85;51.81;101772.63;5108615;28;20347;-68
2023/01/05 03:17:11;;;;;;;29.90;4.83;;;;;;;17.49;52.36;101768.22;5111558;27;20154;-68
2023/01/05 03:19:39;;;;;;;26.93;3.03;;;;;;;16.48;56.72;101787.09;5102530;28;20435;-68
2023/01/05 03:37:17;;;;;;;26.53;3.80;;;;;;;17.39;52.25;101796.66;5083630;28;20402;-68
2023/01/05 03:39:45;;;;;;;26.73;4.00;;;;;;;17.51;51.94;101800.75;5083949;28;20061;-68
2023/01/05 03:42:12;;;;;;;27.73;3.60;;;;;;;17.85;50.88;101799.94;5111703;28;20028;-68
2023/01/05 03:44:40;;;;;;;22.93;3.43;;;;;;;17.36;52.99;101795.84;5116469;27;20035;-68
2023/01/05 03:47:05;;;;;;;31.40;4.07;;;;;;;17.70;52.36;101795.91;5095926;27;20028;-68
2023/01/05 03:49:31;;;;;;;30.57;3.73;;;;;;;17.35;53.17;101800.25;5126256;27;20261;-68
2023/01/05 03:51:57;;;;;;;36.20;5.13;;;;;;;18.11;50.73;101801.94;5124148;27;20029;-68
2023/01/05 03:54:22;;;;;;;31.20;4.13;;;;;;;16.88;53.64;101804.78;5108688;27;20084;-68
2023/01/05 03:56:47;;;;;;;30.70;4.23;;;;;;;17.92;51.61;101800.69;5114347;27;20016;-68
2023/01/05 03:59:13;;;;;;;28.20;4.17;;;;;;;17.49;52.50;101802.56;5084094;27;20059;-68
2023/01/05 04:01:38;;;;;;;33.80;4.73;;;;;;;18.64;49.46;101806.69;5129330;27;20074;-68
2023/01/05 04:04:04;;;;;;;37.43;4.37;;;;;;;18.93;48.60;101796.16;5103034;28;20055;-68
2023/01/05 04:06:30;;;;;;;41.07;4.67;;;;;;;17.84;50.83;101797.34;5113371;27;20106;-68
2023/01/05 04:08:55;;;;;;;25.73;3.53;;;;;;;17.54;52.25;101799.81;5093830;28;20032;-68
2023/01/05 04:11:22;;;;;;;33.63;5.60;;;;;;;16.73;54.57;101806.84;5104882;27;20088;-69
2023/01/05 04:13:47;;;;;;;29.80;4.50;;;;;;;18.32;51.29;101799.63;5092985;28;20027;-68
2023/01/05 04:16:13;;;;;;;35.03;4.73;;;;;;;18.01;51.57;101800.47;5091976;28;20026;-68
2023/01/05 04:18:39;;;;;;;31.30;4.93;;;;;;;17.38;53.64;101800.19;5111291;28;20031;-68
2023/01/05 04:21:05;;;;;;;27.50;5.57;;;;;;;17.52;52.04;101796.34;5111545;27;20106;-68
2023/01/05 04:23:31;;;;;;;37.07;4.50;;;;;;;18.45;49.99;101795.75;5093144;28;20035;-68
2023/01/05 04:25:56;;;;;;;25.20;4.53;;;;;;;18.38;50.85;101791.53;5112975;27;20027;-68
2023/01/05 04:28:21;;;;;;;34.43;4.53;;;;;;;17.05;52.64;101786.84;5093202;28;20090;-68
2023/01/05 04:30:52;;;;;;;30.87;4.57;;;;;;;17.98;51.39;101789.94;5118008;27;20023;-68
2023/01/05 04:33:18;;;;;;;30.73;3.90;;;;;;;17.26;53.15;101806.59;5098358;28;20034;-68
2023/01/05 04:35:44;;;;;;;32.53;4.90;;;;;;;18.34;50.50;101797.81;5109062;27;20023;-69
2023/01/05 04:38:10;;;;;;;42.80;5.73;;;;;;;17.78;51.21;101799.22;5122352;27;20374;-69
2023/01/05 04:40:35;;;;;;;32.70;4.90;;;;;;;17.51;53.66;101797.25;5106156;27;20396;-68
2023/01/05 04:43:00;;;;;;;41.47;5.13;;;;;;;17.69;51.90;101804.72;5088432;27;20387;-69
2023/01/05 04:45:26;;;;;;;24.50;4.00;;;;;;;17.83;51.19;101807.03;5115400;27;20368;-68
2023/01/05 04:47:51;;;;;;;25.87;4.33;;;;;;;17.45;53.88;101811.47;5107356;28;20024;-68
2023/01/05 04:50:17;;;;;;;37.13;5.27;;;;;;;18.30;51.24;101817.34;5092560;27;20073;-68
2023/01/05 04:52:43;;;;;;;38.20;5.13;;;;;;;17.93;51.53;101818.31;5110555;27;20114;-68
2023/01/05 04:55:09;;;;;;;25.77;4.17;;;;;;;16.18;56.62;101818.44;5110583;27;20589;-68
2023/01/05 04:57:34;;;;;;;39.80;5.00;;;;;;;18.69;49.86;101825.09;5107912;27;20089;-68
2023/01/05 05:00:00;;;;;;;26.00;3.90;;;;;;;17.83;52.36;101822.03;5112546;27;20051;-68
2023/01/05 05:02:25;;;;;;;36.70;5.23;;;;;;;18.02;50.57;101823.34;5107268;28;20130;-68
2023/01/05 05:04:51;;;;;;;31.73;4.23;;;;;;;17.86;51.55;101824.59;5109447;28;20023;-69
2023/01/05 05:07:17;;;;;;;34.53;4.67;;;;;;;18.09;50.45;101818.75;5080213;28;20499;-68
2023/01/05 05:09:42;;;;;;;26.17;4.00;;;;;;;17.39;53.34;101828.34;5089460;28;20054;-68
2023/01/05 05:12:07;;;;;;;47.67;5.83;;;;;;;18.17;51.41;101826.50;5096556;28;20024;-68
2023/01/05 05:14:33;;;;;;;43.90;6.10;;;;;;;18.17;52.07;101831.81;5090204;28;20043;-69
2023/01/05 05:16:58;;;;;;;39.67;5.77;;;;;;;18.02;51.96;101825.97;5092234;28;20058;-68
2023/01/05 05:19:24;;;;;;;41.27;5.80;;;;;;;17.91;51.70;101825.34;5107812;28;20028;-69
2023/01/05 05:21:49;;;;;;;31.40;4.70;;;;;;;17.03;53.36;101822.97;5090662;28;20673;-68
2023/01/05 05:24:14;;;;;;;28.43;4.20;;;;;;;18.37;50.19;101825.97;5085774;28;20042;-68
2023/01/05 05:26:40;;;;;;;33.73;4.80;;;;;;;17.44;53.22;101838.81;5072034;28;20029;-68
2023/01/05 05:29:05;;;;;;;33.57;4.57;;;;;;;17.60;53.72;101848.13;5088511;28;20069;-69
2023/01/05 05:31:30;;;;;;;28.40;4.40;;;;;;;18.22;51.73;101848.44;5092213;28;20032;-68
2023/01/05 05:33:56;;;;;;;34.90;5.07;;;;;;;18.31;49.73;101850.81;5087173;28;20024;-68
2023/01/05 05:36:22;;;;;;;35.27;5.57;;;;;;;18.08;51.10;101859.34;5089499;28;20061;-69
2023/01/05 05:38:47;;;;;;;39.73;5.93;;;;;;;18.08;52.67;101869.91;5098182;28;20035;-69
2023/01/05 05:41:12;;;;;;;43.20;5.17;;;;;;;17.68;52.02;101873.50;5090177;28;20031;-68
2023/01/05 05:43:38;;;;;;;28.40;3.87;;;;;;;17.68;52.69;101871.75;5087309;28;20051;-68
2023/01/05 05:46:03;;;;;;;20.20;3.63;;;;;;;17.63;52.89;101879.75;5101151;28;20027;-68
2023/01/05 05:48:29;;;;;;;43.87;5.97;;;;;;;17.71;52.83;101876.97;5108052;28;20024;-68
2023/01/05 05:50:54;;;;;;;31.73;5.47;;;;;;;17.76;53.10;101874.19;5104079;28;20030;-68
2023/01/05 05:53:20;;;;;;;23.70;5.00;;;;;;;17.76;52.15;101888.31;5107109;28;20053;-69
2023/01/05 05:55:49;;;;;;;30.70;3.90;;;;;;;17.70;52.68;101885.78;5096626;28;20495;-69
2023/01/05 05:58:16;;;;;;;35.43;4.83;;;;;;;18.35;50.25;101888.66;5074408;28;20050;-68
2023/01/05 06:00:41;;;;;;;50.03;4.70;;;;;;;18.05;51.01;101886.78;5080373;28;20059;-68
2023/01/05 06:03:07;;;;;;;35.53;5.77;;;;;;;18.67;49.53;101894.88;5128473;27;20065;-68
2023/01/05 06:05:32;;;;;;;34.17;5.17;;;;;;;17.51;52.50;101889.75;5109494;27;20482;-68
2023/01/05 06:07:57;;;;;;;35.13;4.67;;;;;;;18.80;49.99;101886.56;5100370;27;20091;-69
2023/01/05 06:10:22;;;;;;;39.47;4.70;;;;;;;17.61;51.70;101886.88;5128769;27;20100;-68
2023/01/05 06:12:48;;;;;;;26.43;4.33;;;;;;;18.03;50.82;101888.56;5120011;28;20074;-68
2023/01/05 06:15:13;;;;;;;36.80;7.07;;;;;;;17.81;52.42;101889.03;5107951;28;20031;-68
2023/01/05 06:17:39;;;;;;;27.57;4.37;;;;;;;17.90;51.19;101892.38;5088640;28;20016;-68
2023/01/05 06:20:05;;;;;;;30.33;4.87;;;;;;;16.89;53.63;101902.47;5094691;28;20019;-69
2023/01/05 06:22:31;;;;;;;42.87;4.80;;;;;;;17.01;53.22;101906.66;5129233;28;20023;-68
2023/01/05 06:24:56;;;;;;;37.63;4.63;;;;;;;17.19;53.82;101915.09;5130138;28;20071;-68
2023/01/05 06:27:22;;;;;;;34.17;4.57;;;;;;;17.90;51.41;101902.94;5101537;28;20383;-68
2023/01/05 06:29:48;;;;;;;27.83;3.90;;;;;;;18.10;50.85;101915.75;5090514;28;20027;-68
2023/01/05 06:32:13;;;;;;;34.70;5.03;;;;;;;18.61;48.82;101919.75;5124515;28;20030;-68
2023/01/05 06:34:38;;;;;;;37.90;4.40;;;;;;;18.57;48.82;101926.88;5104711;28;20023;-69
2023/01/05 06:37:05;;;;;;;29.30;4.40;;;;;;;17.57;50.59;101926.63;5090539;28;20020;-68
2023/01/05 06:39:30;;;;;;;28.60;3.67;;;;;;;17.64;51.56;101931.75;5116792;28;20065;-68
2023/01/05 06:41:56;;;;;;;32.27;4.33;;;;;;;17.52;51.39;101933.81;5109917;28;20490;-68
2023/01/05 06:44:21;;;;;;;34.63;5.90;;;;;;;18.00;50.08;101940.66;5111374;28;20098;-68
2023/01/05 06:46:46;;;;;;;32.03;6.47;;;;;;;17.48;51.58;101940.06;5093910;28;20481;-68
2023/01/05 06:49:13;;;;;;;33.90;4.23;;;;;;;18.98;48.80;101939.97;5099447;28;20474;-68
2023/01/05 06:51:39;;;;;;;36.23;4.57;;;;;;;18.80;48.45;101942.16;5105646;27;20021;-68
2023/01/05 06:54:05;;;;;;;32.57;5.00;;;;;;;17.46;51.76;101948.88;5107987;28;20034;-69
2023/01/05 06:56:30;;;;;;;34.33;4.73;;;;;;;17.99;50.45;101949.53;5111378;28;20027;-68
2023/01/05 06:58:56;;;;;;;37.67;4.67;;;;;;;18.48;49.28;101951.84;5092769;28;20099;-68
2023/01/05 07:01:21;;;;;;;35.53;3.97;;;;;;;18.41;49.37;101942.31;5108622;27;20082;-68
2023/01/05 07:03:46;;;;;;;33.70;5.13;;;;;;;17.33;51.78;101955.31;5111132;28;20027;-69
2023/01/05 07:06:14;;;;;;;39.53;6.03;;;;;;;18.33;49.35;101953.97;5100066;28;20023;-68
2023/01/05 07:08:39;;;;;;;34.60;4.73;;;;;;;17.70;50.88;101965.09;5094443;28;20023;-68
2023/01/05 07:11:04;;;;;;;29.53;4.33;;;;;;;17.79;50.74;101964.91;5095219;28;20378;-68
2023/01/05 07:13:30;;;;;;;28.90;4.30;;;;;;;17.50;51.78;101969.94;5094132;28;20104;-68
2023/01/05 07:15:55;;;;;;;47.67;5.90;;;;;;;17.71;51.98;101963.31;5090486;28;20031;-68
2023/01/05 07:18:20;;;;;;;25.37;5.33;;;;;;;17.78;50.17;101973.75;5091601;28;20036;-68
2023/01/05 07:20:46;;;;;;;26.60;4.00;;;;;;;17.00;52.01;101957.72;5107359;28;20028;-68
2023/01/05 07:23:11;;;;;;;32.77;4.80;;;;;;;17.74;52.58;101966.78;5107637;28;20555;-67
2023/01/05 07:25:37;;;;;;;28.50;4.40;;;;;;;17.34;52.23;101962.34;5089769;28;20112;-68
2023/01/05 07:28:02;;;;;;;29.73;4.53;;;;;;;17.63;50.65;101958.22;5086319;28;20106;-69
2023/01/05 07:30:27;;;;;;;25.73;4.57;;;;;;;17.41;52.10;101961.31;5093324;28;20024;-68
2023/01/05 07:32:57;;;;;;;35.53;4.67;;;;;;;17.21;52.61;101966.13;5094161;28;20043;-68
2023/01/05 07:35:22;;;;;;;38.60;5.07;;;;;;;16.88;53.47;101968.47;5104929;28;20032;-68
2023/01/05 07:37:48;;;;;;;27.00;4.43;;;;;;;17.31;52.41;101967.69;5087459;28;20046;-67
2023/01/05 07:40:13;;;;;;;31.87;4.50;;;;;;;17.08;53.14;101973.44;5113418;27;20023;-67
2023/01/05 07:42:39;;;;;;;31.77;3.77;;;;;;;17.79;50.93;101978.13;5114050;27;20031;-67
2023/01/05 07:45:05;;;;;;;44.97;5.53;;;;;;;17.48;52.09;101974.41;5109057;27;20080;-68
2023/01/05 07:47:31;;;;;;;36.23;5.20;;;;;;;16.86;53.60;101981.72;5090708;28;20027;-67
2023/01/05 07:49:56;;;;;;;38.73;6.27;;;;;;;17.52;51.60;101986.66;5112098;28;20019;-67
2023/01/05 07:52:22;;;;;;;39.73;5.23;;;;;;;17.49;52.03;101981.41;5097675;28;20028;-67
2023/01/05 07:54:47;;;;;;;36.33;5.03;;;;;;;17.95;50.56;101993.69;5113770;27;20081;-68
2023/01/05 07:57:12;;;;;;;26.23;4.33;;;;;;;17.66;50.94;101996.94;5099019;28;20398;-68
2023/01/05 07:59:38;;;;;;;38.83;4.27;;;;;;;17.01;53.29;101996.44;5093895;28;20024;-68
2023/01/05 08:02:03;;;;;;;34.67;4.47;;;;;;;17.37;51.93;101998.41;5092787;27;20048;-68
2023/01/05 08:04:29;;;;;;;41.70;5.23;;;;;;;18.07;50.16;102006.63;5085430;27;20507;-68
2023/01/05 08:06:55;;;;;;;31.40;4.93;;;;;;;18.42;48.60;102007.59;5105265;27;20015;-67
2023/01/05 08:12:04;;;;;;;32.50;4.40;;;;;;;17.84;50.52;102014.19;5111406;27;20501;-68
2023/01/05 08:14:30;;;;;;;33.73;4.87;;;;;;;17.20;51.93;102017.22;5099553;27;20011;-68
2023/01/05 08:16:55;;;;;;;33.60;5.50;;;;;;;16.74;52.86;102014.47;5107390;27;20076;-68
2023/01/05 08:19:20;;;;;;;42.83;5.80;;;;;;;17.22;52.16;102021.56;5091822;28;20035;-68
2023/01/05 08:21:46;;;;;;;43.83;5.60;;;;;;;17.26;51.68;102023.25;5111875;27;20624;-67
2023/01/05 08:24:14;;;;;;;38.37;5.07;;;;;;;17.40;52.13;102030.06;5109360;28;20368;-68
2023/01/05 08:26:39;;;;;;;24.83;3.80;;;;;;;17.72;51.60;102021.47;5092893;28;20035;-68
2023/01/05 08:29:05;;;;;;;38.47;5.90;;;;;;;17.40;51.10;102030.06;5092959;28;20023;-68
2023/01/05 08:31:36;;;;;;;39.57;4.80;;;;;;;17.68;50.61;102030.38;5089439;28;20811;-68
2023/01/05 08:34:02;;;;;;;38.00;4.33;;;;;;;18.67;48.46;102029.91;5104889;27;20110;-68
2023/01/05 08:36:30;;;;;;;41.47;4.63;;;;;;;17.79;50.14;102044.25;5109641;27;20023;-68
2023/01/05 08:38:56;;;;;;;29.10;4.27;;;;;;;17.99;49.70;102045.63;5104672;27;20841;-68
2023/01/05 08:41:27;;;;;;;34.43;4.80;;;;;;;16.15;55.50;102056.72;5087493;28;20125;-68
2023/01/05 08:43:55;;;;;;;26.30;5.97;;;;;;;17.99;49.37;102050.91;5100498;28;20028;-68
2023/01/05 08:46:22;;;;;;;31.43;5.27;;;;;;;17.65;50.82;102051.56;5106720;27;20030;-69
2023/01/05 08:48:49;;;;;;;32.40;4.63;;;;;;;17.83;49.55;102060.03;5079769;28;20543;-68
2023/01/05 08:51:15;;;;;;;28.80;4.50;;;;;;;18.21;49.44;102067.16;5092921;27;20382;-68
2023/01/05 08:53:40;;;;;;;31.70;6.03;;;;;;;18.39;49.16;102065.88;5110290;28;20027;-67
2023/01/05 08:56:06;;;;;;;41.70;5.07;;;;;;;18.39;49.17;102065.88;5104951;27;20034;-67
2023/01/05 08:58:31;;;;;;;30.97;4.60;;;;;;;18.43;49.17;102064.91;5089936;27;20486;-67
2023/01/05 09:00:57;;;;;;;38.17;4.33;;;;;;;17.94;49.88;102080.09;5085325;28;20505;-68
2023/01/05 09:03:22;;;;;;;33.70;6.20;;;;;;;18.05;48.84;102071.06;5104687;27;20039;-67
2023/01/05 09:05:51;;;;;;;36.80;4.80;;;;;;;18.24;49.54;102077.69;5100765;28;20020;-67
2023/01/05 09:08:18;;;;;;;26.43;4.43;;;;;;;17.66;50.37;102079.75;5099626;27;20039;-67
2023/01/05 09:10:43;;;;;;;33.50;4.47;;;;;;;18.69;47.66;102079.28;5105315;28;20027;-67
2023/01/05 09:13:09;;;;;;;38.40;5.17;;;;;;;18.43;48.09;102083.44;5087834;28;20028;-67
2023/01/05 09:15:35;;;;;;;39.53;4.90;;;;;;;18.70;48.08;102074.84;5089919;27;20024;-67
2023/01/05 09:18:00;;;;;;;34.37;5.30;;;;;;;19.11;47.27;102073.88;5085677;27;20024;-67
2023/01/05 09:20:25;;;;;;;29.47;4.07;;;;;;;18.63;47.07;102085.63;5092443;28;20137;-67
2023/01/05 09:22:51;;;;;;;36.87;4.33;;;;;;;18.42;48.69;102081.72;5095813;27;20380;-67
2023/01/05 09:25:16;;;;;;;39.70;6.27;;;;;;;18.82;48.06;102088.69;5115650;27;20050;-67
2023/01/05 09:27:42;;;;;;;41.07;5.23;;;;;;;18.63;47.87;102092.69;5119330;27;20357;-67
2023/01/05 09:30:08;;;;;;;30.40;5.00;;;;;;;19.66;45.54;102083.88;5087528;28;20470;-67
2023/01/05 09:32:36;;;;;;;30.70;4.63;;;;;;;18.77;47.80;102098.53;5110117;28;20046;-67
2023/01/05 09:35:01;;;;;;;46.47;5.80;;;;;;;19.10;46.92;102088.00;5092399;28;20092;-67
2023/01/05 09:37:26;;;;;;;24.30;3.77;;;;;;;17.77;49.21;102093.63;5107904;27;20028;-67
2023/01/05 09:39:52;;;;;;;42.87;5.73;;;;;;;18.63;48.18;102101.50;5086395;28;20351;-67
2023/01/05 09:42:22;;;;;;;32.40;4.87;;;;;;;19.03;46.81;102097.03;5093480;28;20023;-67
2023/01/05 09:44:53;;;;;;;47.43;4.93;;;;;;;18.70;47.96;102103.97;5095169;27;20096;-67
2023/01/05 09:47:35;;;;;;;33.73;4.77;;;;;;;18.09;49.74;102102.72;5088207;28;20589;-67
2023/01/05 09:50:03;;;;;;;37.10;4.90;;;;;;;18.34;49.31;102104.84;5091261;28;20035;-67
2023/01/05 09:52:28;;;;;;;33.27;6.30;;;;;;;17.56;51.39;102115.22;5091535;28;20027;-66
2023/01/05 09:54:55;;;;;;;48.50;5.97;;;;;;;19.35;47.93;102110.38;5082538;27;20054;-67
2023/01/05 09:57:25;;;;;;;35.07;4.57;;;;;;;19.25;48.06;102115.03;5087290;27;20023;-67
2023/01/05 09:59:53;;;;;;;27.30;4.80;;;;;;;18.65;47.89;102120.84;5083607;28;20438;-67
2023/01/05 10:02:41;;;;;;;47.07;6.77;;;;;;;18.59;48.52;102126.31;5090402;28;20046;-67
2023/01/05 10:05:10;;;;;;;34.80;5.07;;;;;;;18.53;48.23;102128.22;5093451;28;20043;-67
2023/01/05 10:07:46;;;;;;;34.80;4.70;;;;;;;19.31;47.09;102123.69;5078875;28;20038;-67
2023/01/05 10:10:31;;;;;;;29.45;4.18;;;;;;;18.96;47.82;102132.56;5093850;28;20019;-67
2023/01/05 10:13:01;;;;;;;35.22;4.47;;;;;;;18.86;47.67;102144.22;5084023;28;20115;-67
2023/01/05 10:15:31;;;;;;;35.00;4.53;;;;;;;18.30;49.71;102133.13;5106337;28;20429;-67
2023/01/05 10:18:01;;;;;;;36.47;5.35;;;;;;;19.21;47.26;102135.44;5090778;28;20040;-67
2023/01/05 10:21:06;;;;;;;29.20;5.07;;;;;;;18.48;47.80;102144.22;5088558;28;20114;-67
2023/01/05 10:24:08;;;;;;;40.03;4.90;;;;;;;19.34;48.04;102128.03;5088473;28;20027;-67
2023/01/05 10:26:45;;;;;;;33.43;5.33;;;;;;;18.72;48.73;102134.81;5087478;28;20517;-67
2023/01/05 10:29:12;;;;;;;47.75;5.40;;;;;;;18.48;48.89;102139.78;5104484;27;20020;-67
2023/01/05 10:31:58;;;;;;;41.75;5.80;;;;;;;18.94;49.35;102131.69;5097135;27;20034;-67
2023/01/05 10:34:49;;;;;;;34.60;4.63;;;;;;;19.14;48.56;102134.72;5122909;27;20034;-67
2023/01/05 10:37:34;;;;;;;38.63;4.67;;;;;;;19.24;48.68;102134.50;5094332;27;20031;-67
2023/01/05 10:40:20;;;;;;;32.88;5.30;;;;;;;19.95;46.57;102140.56;5106631;27;20019;-67
2023/01/05 10:43:11;;;;;;;43.85;5.95;;;;;;;19.76;46.86;102143.69;5092581;28;20035;-67
2023/01/05 10:45:37;;;;;;;36.83;4.88;;;;;;;19.14;47.73;102145.31;5080600;28;20035;-67
2023/01/05 10:48:03;;;;;;;35.10;5.00;;;;;;;20.13;45.59;102140.03;5087444;28;20039;-67
2023/01/05 10:50:41;;;;;;;32.28;4.93;;;;;;;21.43;43.58;102133.25;5092275;27;20421;-67
2023/01/05 10:53:13;;;;;;;38.63;6.20;;;;;;;20.41;44.94;102144.50;5091547;28;20028;-67
2023/01/05 10:56:03;;;;;;;40.90;5.20;;;;;;;19.56;47.40;102146.03;5112814;27;20023;-67
2023/01/05 10:58:39;;;;;;;44.92;6.07;;;;;;;20.43;46.11;102140.00;5107240;27;20054;-67
2023/01/05 11:01:13;;;;;;;37.25;5.35;;;;;;;19.32;47.25;102137.81;5094490;27;20044;-67
2023/01/05 11:03:41;;;;;;;37.85;6.07;;;;;;;20.43;46.28;102134.69;5121864;27;20390;-67
2023/01/05 11:06:08;;;;;;;33.42;5.75;;;;;;;19.27;47.90;102123.81;5093915;28;20474;-67
2023/01/05 11:08:35;;;;;;;35.25;5.38;;;;;;;19.85;46.74;102131.13;5093783;28;20035;-66
2023/01/05 11:11:03;;;;;;;34.90;6.50;;;;;;;19.80;45.83;102121.50;5107788;28;20487;-67
2023/01/05 11:13:34;;;;;;;41.40;4.72;;;;;;;19.04;47.18;102122.63;5104938;27;20073;-67
2023/01/05 11:16:08;;;;;;;47.05;6.20;;;;;;;19.04;48.38;102122.63;5109941;27;20077;-67
2023/01/05 11:18:35;;;;;;;34.38;4.45;;;;;;;18.61;49.35;102128.91;5089717;28;20118;-67
2023/01/05 11:21:05;;;;;;;38.33;4.80;;;;;;;19.58;47.25;102118.56;5085651;27;20036;-67
2023/01/05 11:23:43;;;;;;;42.13;6.40;;;;;;;17.76;51.60;102121.00;5097739;28;20034;-67
2023/01/05 11:26:14;;;;;;;29.67;4.47;;;;;;;19.30;48.33;102118.41;5099644;27;20046;-67
2023/01/05 11:28:57;;;;;;;44.20;6.53;;;;;;;18.69;49.23;102126.97;5082630;28;20026;-67
2023/01/05 11:31:31;;;;;;;50.97;7.10;;;;;;;19.31;48.68;102126.31;5085044;28;20027;-67
2023/01/05 11:33:58;;;;;;;30.05;4.65;;;;;;;18.55;49.85;102118.47;5085005;28;20028;-67
2023/01/05 11:36:25;;;;;;;43.08;6.30;;;;;;;19.82;46.33;102129.41;5077476;28;20034;-67
2023/01/05 11:38:54;;;;;;;45.97;6.07;;;;;;;18.35;50.02;102117.13;5093710;27;20084;-67
2023/01/05 11:41:23;;;;;;;34.20;6.93;;;;;;;19.59;47.13;102114.09;5086730;28;20040;-67
2023/01/05 11:43:51;;;;;;;31.60;5.50;;;;;;;19.54;46.77;102116.91;5101659;27;20034;-67
2023/01/05 11:46:17;;;;;;;42.47;5.10;;;;;;;19.02;47.67;102103.25;5111561;27;20498;-67
2023/01/05 11:48:55;;;;;;;34.30;4.88;;;;;;;18.75;48.65;102116.25;5115707;27;20032;-67
2023/01/05 11:51:37;;;;;;;37.23;6.27;;;;;;;20.08;45.38;102102.13;5106826;27;20119;-67
2023/01/05 11:54:03;;;;;;;36.23;5.53;;;;;;;18.53;48.82;102110.53;5097200;27;20675;-67
2023/01/05 11:56:29;;;;;;;44.20;5.00;;;;;;;19.29;47.58;102104.31;5095361;27;20019;-67